EZY47LC EGPH-LPPT
Flight info
| Callsign | EZY47LC |
|---|---|
| Flight time | 2h 48m |
| Altitude | 36000 |
| Route | GOSAM DCT TRN DCT BLACA DCT PEPOD DCT NIMAT DCT TUVEN/M079F360 DCT LASNO T9 BEGAS/N0448F370 DCT PINEK DCT XAMAX |
| Aircraft | A320/M-SDE3FGHIRWY/LB1 |
Departure
| Time | 2026-04-20 00:00 |
|---|---|
| Airport | Edinburgh Airport (EGPH) |
Arrival
| Time | 2026-04-20 02:49 |
|---|---|
| Airport | Lisbon Humberto Delgado Airport (LPPT) |
| Time | Latitude | Longitude | Altitude | Speed | Heading |
|---|---|---|---|---|---|
| 2026-04-19 23:18 | 55.94995 | -3.36234 | 113 ft | 0 kts | 117° |
| 2026-04-19 23:52 | 55.95003 | -3.36262 | 115 ft | 3 kts | 117° |
| 2026-04-19 23:52 | 55.95014 | -3.36300 | 113 ft | 3 kts | 117° |
| 2026-04-19 23:52 | 55.95022 | -3.36331 | 112 ft | 3 kts | 104° |
| 2026-04-19 23:53 | 55.95022 | -3.36370 | 113 ft | 3 kts | 65° |
| 2026-04-19 23:53 | 55.95012 | -3.36403 | 114 ft | 2 kts | 58° |
| 2026-04-19 23:53 | 55.95003 | -3.36429 | 115 ft | 0 kts | 58° |
| 2026-04-19 23:56 | 55.95017 | -3.36398 | 113 ft | 8 kts | 40° |
| 2026-04-19 23:56 | 55.95063 | -3.36398 | 114 ft | 6 kts | 348° |
| 2026-04-19 23:57 | 55.95103 | -3.36373 | 115 ft | 9 kts | 47° |
| 2026-04-19 23:57 | 55.95133 | -3.36285 | 114 ft | 9 kts | 59° |
| 2026-04-19 23:57 | 55.95176 | -3.36157 | 115 ft | 15 kts | 59° |
| 2026-04-19 23:57 | 55.95224 | -3.36015 | 113 ft | 13 kts | 59° |
| 2026-04-19 23:58 | 55.95271 | -3.35878 | 111 ft | 11 kts | 59° |
| 2026-04-19 23:58 | 55.95312 | -3.35756 | 113 ft | 13 kts | 59° |
| 2026-04-19 23:58 | 55.95364 | -3.35601 | 112 ft | 14 kts | 59° |
| 2026-04-19 23:58 | 55.95411 | -3.35462 | 112 ft | 12 kts | 59° |
| 2026-04-19 23:59 | 55.95458 | -3.35402 | 113 ft | 7 kts | 359° |
| 2026-04-19 23:59 | 55.95501 | -3.35440 | 113 ft | 10 kts | 330° |
| 2026-04-19 23:59 | 55.95572 | -3.35523 | 113 ft | 9 kts | 310° |
| 2026-04-19 23:59 | 55.95556 | -3.35614 | 113 ft | 9 kts | 239° |
| 2026-04-20 00:00 | 55.95461 | -3.35900 | 111 ft | 59 kts | 239° |
| 2026-04-20 00:00 | 55.95121 | -3.36887 | 114 ft | 124 kts | 239° |
| 2026-04-20 00:00 | 55.94596 | -3.38455 | 245 ft | 161 kts | 240° |
| 2026-04-20 00:00 | 55.94017 | -3.40182 | 916 ft | 166 kts | 240° |
| 2026-04-20 00:01 | 55.93377 | -3.42058 | 1353 ft | 186 kts | 240° |
| 2026-04-20 00:01 | 55.92654 | -3.44142 | 1640 ft | 209 kts | 240° |
| 2026-04-20 00:01 | 55.90940 | -3.49082 | 2453 ft | 256 kts | 242° |
| 2026-04-20 00:02 | 55.90327 | -3.52069 | 3242 ft | 259 kts | 262° |
| 2026-04-20 00:02 | 55.90003 | -3.55241 | 4173 ft | 261 kts | 262° |
| 2026-04-20 00:02 | 55.89686 | -3.58435 | 5119 ft | 262 kts | 261° |
| 2026-04-20 00:02 | 55.89370 | -3.61636 | 6043 ft | 263 kts | 261° |
| 2026-04-20 00:03 | 55.89051 | -3.64852 | 6969 ft | 264 kts | 261° |
| 2026-04-20 00:03 | 55.88728 | -3.68085 | 7803 ft | 267 kts | 262° |
| 2026-04-20 00:03 | 55.88400 | -3.71364 | 8604 ft | 271 kts | 262° |
| 2026-04-20 00:03 | 55.88064 | -3.74700 | 9400 ft | 276 kts | 263° |
| 2026-04-20 00:04 | 55.87724 | -3.78091 | 10168 ft | 280 kts | 263° |
| 2026-04-20 00:04 | 55.87379 | -3.81561 | 10698 ft | 293 kts | 263° |
| 2026-04-20 00:04 | 55.87015 | -3.85282 | 10915 ft | 317 kts | 263° |
| 2026-04-20 00:04 | 55.86625 | -3.89294 | 11093 ft | 339 kts | 263° |
| 2026-04-20 00:05 | 55.86209 | -3.93500 | 11598 ft | 349 kts | 263° |
| 2026-04-20 00:05 | 55.85779 | -3.97774 | 12249 ft | 353 kts | 263° |
| 2026-04-20 00:05 | 55.85338 | -4.02093 | 12948 ft | 356 kts | 263° |
| 2026-04-20 00:05 | 55.84891 | -4.06457 | 13655 ft | 359 kts | 263° |
| 2026-04-20 00:06 | 55.84277 | -4.10790 | 14293 ft | 367 kts | 251° |
| 2026-04-20 00:06 | 55.82910 | -4.14689 | 14878 ft | 378 kts | 231° |
| 2026-04-20 00:06 | 55.80863 | -4.17687 | 15447 ft | 387 kts | 217° |
| 2026-04-20 00:06 | 55.78636 | -4.20406 | 16039 ft | 390 kts | 217° |
| 2026-04-20 00:07 | 55.76387 | -4.23144 | 16614 ft | 393 kts | 217° |
| 2026-04-20 00:07 | 55.74122 | -4.25923 | 17176 ft | 397 kts | 218° |
| 2026-04-20 00:07 | 55.71844 | -4.28738 | 17732 ft | 400 kts | 218° |
| 2026-04-20 00:07 | 55.69557 | -4.31582 | 18268 ft | 404 kts | 218° |
| 2026-04-20 00:08 | 55.67247 | -4.34461 | 18776 ft | 407 kts | 218° |
| 2026-04-20 00:08 | 55.64923 | -4.37352 | 19250 ft | 410 kts | 218° |
| 2026-04-20 00:08 | 55.62579 | -4.40253 | 19718 ft | 413 kts | 218° |
| 2026-04-20 00:08 | 55.60210 | -4.43174 | 20181 ft | 416 kts | 218° |
| 2026-04-20 00:09 | 55.57831 | -4.46100 | 20636 ft | 419 kts | 218° |
| 2026-04-20 00:09 | 55.55423 | -4.49060 | 21010 ft | 423 kts | 219° |
| 2026-04-20 00:09 | 55.52993 | -4.52039 | 21406 ft | 427 kts | 219° |
| 2026-04-20 00:09 | 55.50541 | -4.55041 | 21844 ft | 430 kts | 219° |
| 2026-04-20 00:10 | 55.48072 | -4.58053 | 22276 ft | 433 kts | 219° |
| 2026-04-20 00:10 | 55.45581 | -4.61090 | 22693 ft | 436 kts | 219° |
| 2026-04-20 00:10 | 55.43078 | -4.64143 | 23106 ft | 439 kts | 219° |
| 2026-04-20 00:10 | 55.40562 | -4.67209 | 23576 ft | 441 kts | 219° |
| 2026-04-20 00:11 | 55.38041 | -4.70276 | 23989 ft | 443 kts | 219° |
| 2026-04-20 00:11 | 55.35490 | -4.73369 | 24319 ft | 445 kts | 219° |
| 2026-04-20 00:11 | 55.32934 | -4.76459 | 24645 ft | 448 kts | 219° |
| 2026-04-20 00:11 | 55.30264 | -4.79343 | 24965 ft | 454 kts | 211° |
| 2026-04-20 00:12 | 55.27425 | -4.81841 | 25283 ft | 457 kts | 211° |
| 2026-04-20 00:12 | 55.24576 | -4.84341 | 25604 ft | 460 kts | 211° |
| 2026-04-20 00:12 | 55.21745 | -4.86826 | 25918 ft | 462 kts | 211° |
| 2026-04-20 00:12 | 55.18823 | -4.89393 | 26257 ft | 464 kts | 211° |
| 2026-04-20 00:13 | 55.15934 | -4.91930 | 26560 ft | 467 kts | 211° |
| 2026-04-20 00:13 | 55.13060 | -4.94447 | 26836 ft | 468 kts | 211° |
| 2026-04-20 00:13 | 55.10133 | -4.97008 | 27042 ft | 473 kts | 212° |
| 2026-04-20 00:13 | 55.07176 | -4.99589 | 27282 ft | 477 kts | 212° |
| 2026-04-20 00:14 | 55.04204 | -5.02175 | 27556 ft | 480 kts | 212° |
| 2026-04-20 00:14 | 55.01173 | -5.04800 | 27832 ft | 482 kts | 212° |
| 2026-04-20 00:14 | 54.98194 | -5.07377 | 28087 ft | 484 kts | 211° |
| 2026-04-20 00:14 | 54.95173 | -5.09987 | 28369 ft | 486 kts | 211° |
| 2026-04-20 00:15 | 54.92134 | -5.12610 | 28624 ft | 488 kts | 211° |
| 2026-04-20 00:15 | 54.89083 | -5.15236 | 28854 ft | 491 kts | 211° |
| 2026-04-20 00:15 | 54.85980 | -5.17741 | 29154 ft | 494 kts | 209° |
| 2026-04-20 00:15 | 54.82810 | -5.20037 | 29540 ft | 494 kts | 207° |
| 2026-04-20 00:16 | 54.79603 | -5.22171 | 29927 ft | 494 kts | 206° |
| 2026-04-20 00:16 | 54.76377 | -5.24223 | 30294 ft | 494 kts | 205° |
| 2026-04-20 00:16 | 54.73152 | -5.26259 | 30616 ft | 494 kts | 205° |
| 2026-04-20 00:16 | 54.69922 | -5.28332 | 30933 ft | 493 kts | 206° |
| 2026-04-20 00:17 | 54.66718 | -5.30438 | 31238 ft | 492 kts | 207° |
| 2026-04-20 00:17 | 54.63541 | -5.32575 | 31542 ft | 490 kts | 207° |
| 2026-04-20 00:17 | 54.60375 | -5.34731 | 31892 ft | 488 kts | 208° |
| 2026-04-20 00:17 | 54.57230 | -5.36874 | 32266 ft | 485 kts | 208° |
| 2026-04-20 00:18 | 54.54086 | -5.39002 | 32563 ft | 484 kts | 207° |
| 2026-04-20 00:18 | 54.51970 | -5.40424 | 32778 ft | 483 kts | 207° |
| 2026-04-20 00:18 | 54.48840 | -5.42514 | 33103 ft | 482 kts | 207° |
| 2026-04-20 00:18 | 54.45715 | -5.44592 | 33422 ft | 481 kts | 207° |
| 2026-04-20 00:19 | 54.42599 | -5.46664 | 33745 ft | 480 kts | 207° |
| 2026-04-20 00:19 | 54.39533 | -5.48701 | 34072 ft | 479 kts | 207° |
| 2026-04-20 00:19 | 54.36430 | -5.50761 | 34379 ft | 477 kts | 207° |
| 2026-04-20 00:19 | 54.33332 | -5.52813 | 34669 ft | 476 kts | 207° |
| 2026-04-20 00:20 | 54.30251 | -5.54853 | 34918 ft | 476 kts | 207° |
| 2026-04-20 00:20 | 54.27121 | -5.56920 | 35157 ft | 476 kts | 207° |
| 2026-04-20 00:20 | 54.24046 | -5.58849 | 35383 ft | 477 kts | 205° |
| 2026-04-20 00:20 | 54.20904 | -5.60679 | 35595 ft | 478 kts | 204° |
| 2026-04-20 00:21 | 54.17730 | -5.62432 | 35802 ft | 479 kts | 203° |
| 2026-04-20 00:21 | 54.14557 | -5.64144 | 36009 ft | 479 kts | 203° |
| 2026-04-20 00:21 | 54.11381 | -5.65865 | 36201 ft | 479 kts | 203° |
| 2026-04-20 00:21 | 54.08216 | -5.67606 | 36333 ft | 478 kts | 203° |
| 2026-04-20 00:22 | 54.05054 | -5.69374 | 36365 ft | 478 kts | 203° |
| 2026-04-20 00:22 | 53.98753 | -5.72936 | 36361 ft | 477 kts | 204° |
| 2026-04-20 00:23 | 53.92761 | -5.77615 | 36367 ft | 469 kts | 214° |
| 2026-04-20 00:23 | 53.87038 | -5.82848 | 36361 ft | 469 kts | 214° |
| 2026-04-20 00:24 | 53.81292 | -5.88060 | 36355 ft | 468 kts | 214° |
| 2026-04-20 00:24 | 53.75562 | -5.93224 | 36361 ft | 467 kts | 214° |
| 2026-04-20 00:25 | 53.69821 | -5.98397 | 36359 ft | 467 kts | 214° |
| 2026-04-20 00:25 | 53.64097 | -6.03559 | 36356 ft | 467 kts | 214° |
| 2026-04-20 00:26 | 53.58366 | -6.08696 | 36338 ft | 467 kts | 213° |
| 2026-04-20 00:26 | 53.52590 | -6.13850 | 36350 ft | 466 kts | 213° |
| 2026-04-20 00:27 | 53.46909 | -6.18911 | 36357 ft | 465 kts | 213° |
| 2026-04-20 00:27 | 53.41160 | -6.24021 | 36357 ft | 464 kts | 213° |
| 2026-04-20 00:28 | 53.35505 | -6.29025 | 36378 ft | 462 kts | 213° |
| 2026-04-20 00:28 | 53.29820 | -6.34035 | 36346 ft | 462 kts | 213° |
| 2026-04-20 00:29 | 53.24137 | -6.39033 | 36347 ft | 461 kts | 213° |
| 2026-04-20 00:29 | 53.18463 | -6.44018 | 36346 ft | 461 kts | 213° |
| 2026-04-20 00:30 | 53.12794 | -6.48985 | 36344 ft | 460 kts | 213° |
| 2026-04-20 00:30 | 53.07115 | -6.53933 | 36334 ft | 461 kts | 213° |
| 2026-04-20 00:31 | 53.01448 | -6.58856 | 36370 ft | 459 kts | 213° |
| 2026-04-20 00:31 | 52.95786 | -6.63748 | 36347 ft | 458 kts | 212° |
| 2026-04-20 00:32 | 52.90136 | -6.68618 | 36353 ft | 457 kts | 212° |
| 2026-04-20 00:32 | 52.84498 | -6.73487 | 36359 ft | 457 kts | 212° |
| 2026-04-20 00:33 | 52.78866 | -6.78347 | 36351 ft | 456 kts | 211° |
| 2026-04-20 00:33 | 52.73239 | -6.83163 | 36363 ft | 455 kts | 211° |
| 2026-04-20 00:34 | 52.67629 | -6.87949 | 36363 ft | 454 kts | 211° |
| 2026-04-20 00:34 | 52.62019 | -6.92729 | 36363 ft | 453 kts | 211° |
| 2026-04-20 00:35 | 52.56421 | -6.97477 | 36360 ft | 453 kts | 211° |
| 2026-04-20 00:35 | 52.50813 | -7.02226 | 36338 ft | 452 kts | 210° |
| 2026-04-20 00:36 | 52.45227 | -7.06940 | 36345 ft | 451 kts | 210° |
| 2026-04-20 00:36 | 52.39642 | -7.11638 | 36347 ft | 451 kts | 210° |
| 2026-04-20 00:37 | 52.34100 | -7.16296 | 36346 ft | 450 kts | 210° |
| 2026-04-20 00:37 | 52.28524 | -7.20967 | 36332 ft | 450 kts | 209° |
| 2026-04-20 00:38 | 52.22952 | -7.25618 | 36333 ft | 449 kts | 209° |
| 2026-04-20 00:38 | 52.17387 | -7.30244 | 36335 ft | 449 kts | 209° |
| 2026-04-20 00:39 | 52.11813 | -7.34858 | 36328 ft | 449 kts | 209° |
| 2026-04-20 00:39 | 52.06243 | -7.39469 | 36320 ft | 449 kts | 208° |
| 2026-04-20 00:40 | 52.00673 | -7.44076 | 36324 ft | 449 kts | 208° |
| 2026-04-20 00:40 | 51.95105 | -7.48667 | 36331 ft | 448 kts | 208° |
| 2026-04-20 00:41 | 51.89547 | -7.53221 | 36328 ft | 447 kts | 208° |
| 2026-04-20 00:41 | 51.83992 | -7.57767 | 36324 ft | 447 kts | 208° |
| 2026-04-20 00:42 | 51.78447 | -7.62295 | 36309 ft | 447 kts | 207° |
| 2026-04-20 00:42 | 51.72903 | -7.66799 | 36318 ft | 445 kts | 208° |
| 2026-04-20 00:43 | 51.67364 | -7.71295 | 36319 ft | 445 kts | 208° |
| 2026-04-20 00:43 | 51.61847 | -7.75771 | 36311 ft | 444 kts | 207° |
| 2026-04-20 00:44 | 51.56322 | -7.80223 | 36310 ft | 444 kts | 207° |
| 2026-04-20 00:44 | 51.50806 | -7.84652 | 36307 ft | 444 kts | 206° |
| 2026-04-20 00:45 | 51.45287 | -7.89092 | 36300 ft | 444 kts | 207° |
| 2026-04-20 00:45 | 51.39757 | -7.93521 | 36298 ft | 444 kts | 206° |
| 2026-04-20 00:46 | 51.34235 | -7.97925 | 36301 ft | 443 kts | 206° |
| 2026-04-20 00:46 | 51.28713 | -8.02329 | 36297 ft | 443 kts | 206° |
| 2026-04-20 00:47 | 51.23221 | -8.06685 | 36292 ft | 443 kts | 206° |
| 2026-04-20 00:47 | 51.17705 | -8.11057 | 36296 ft | 443 kts | 206° |
| 2026-04-20 00:48 | 51.12157 | -8.15437 | 36303 ft | 442 kts | 206° |
| 2026-04-20 00:48 | 51.06647 | -8.19773 | 36303 ft | 441 kts | 206° |
| 2026-04-20 00:49 | 51.01166 | -8.24024 | 36304 ft | 441 kts | 203° |
| 2026-04-20 00:49 | 50.95254 | -8.26576 | 36309 ft | 441 kts | 192° |
| 2026-04-20 00:50 | 50.89235 | -8.28518 | 36306 ft | 441 kts | 193° |
| 2026-04-20 00:50 | 50.83237 | -8.30471 | 36297 ft | 440 kts | 193° |
| 2026-04-20 00:51 | 50.77239 | -8.32430 | 36299 ft | 440 kts | 193° |
| 2026-04-20 00:51 | 50.71241 | -8.34392 | 36295 ft | 440 kts | 193° |
| 2026-04-20 00:52 | 50.65235 | -8.36341 | 36290 ft | 440 kts | 193° |
| 2026-04-20 00:52 | 50.59229 | -8.38272 | 36290 ft | 440 kts | 193° |
| 2026-04-20 00:53 | 50.53227 | -8.40203 | 36277 ft | 441 kts | 193° |
| 2026-04-20 00:53 | 50.47215 | -8.42137 | 36272 ft | 441 kts | 193° |
| 2026-04-20 00:54 | 50.41201 | -8.44089 | 36277 ft | 441 kts | 193° |
| 2026-04-20 00:54 | 50.35187 | -8.46015 | 36271 ft | 442 kts | 193° |
| 2026-04-20 00:55 | 50.29152 | -8.47935 | 36255 ft | 443 kts | 194° |
| 2026-04-20 00:55 | 50.23110 | -8.49856 | 36251 ft | 444 kts | 194° |
| 2026-04-20 00:56 | 50.17060 | -8.51781 | 36249 ft | 444 kts | 194° |
| 2026-04-20 00:56 | 50.11002 | -8.53693 | 36254 ft | 445 kts | 194° |
| 2026-04-20 00:57 | 50.04932 | -8.55603 | 36252 ft | 444 kts | 194° |
| 2026-04-20 00:57 | 49.98869 | -8.57518 | 36256 ft | 444 kts | 194° |
| 2026-04-20 00:58 | 49.92811 | -8.59425 | 36254 ft | 444 kts | 194° |
| 2026-04-20 00:58 | 49.86752 | -8.61326 | 36243 ft | 444 kts | 194° |
| 2026-04-20 00:59 | 49.80742 | -8.63211 | 36241 ft | 443 kts | 194° |
| 2026-04-20 00:59 | 49.74700 | -8.65097 | 36243 ft | 443 kts | 194° |
| 2026-04-20 01:00 | 49.68647 | -8.66972 | 36238 ft | 443 kts | 194° |
| 2026-04-20 01:00 | 49.62612 | -8.68847 | 36228 ft | 443 kts | 194° |
| 2026-04-20 01:01 | 49.56575 | -8.70716 | 36235 ft | 442 kts | 194° |
| 2026-04-20 01:01 | 49.50542 | -8.72576 | 36232 ft | 442 kts | 194° |
| 2026-04-20 01:02 | 49.44513 | -8.74429 | 36235 ft | 442 kts | 194° |
| 2026-04-20 01:02 | 49.39498 | -8.75967 | 36216 ft | 442 kts | 194° |
| 2026-04-20 01:03 | 49.33468 | -8.77809 | 36219 ft | 441 kts | 194° |
| 2026-04-20 01:03 | 49.27448 | -8.79650 | 36217 ft | 441 kts | 194° |
| 2026-04-20 01:04 | 49.21420 | -8.81487 | 36216 ft | 441 kts | 194° |
| 2026-04-20 01:04 | 49.15403 | -8.83317 | 36205 ft | 441 kts | 194° |
| 2026-04-20 01:05 | 49.09384 | -8.85147 | 36195 ft | 441 kts | 194° |
| 2026-04-20 01:05 | 49.03376 | -8.86972 | 36189 ft | 441 kts | 194° |
| 2026-04-20 01:06 | 48.97352 | -8.88787 | 36191 ft | 441 kts | 194° |
| 2026-04-20 01:06 | 48.91332 | -8.90588 | 36178 ft | 441 kts | 194° |
| 2026-04-20 01:07 | 48.85301 | -8.92395 | 36191 ft | 441 kts | 194° |
| 2026-04-20 01:07 | 48.79282 | -8.94209 | 36196 ft | 441 kts | 194° |
| 2026-04-20 01:08 | 48.73253 | -8.96010 | 36189 ft | 441 kts | 194° |
| 2026-04-20 01:08 | 48.67240 | -8.97806 | 36186 ft | 441 kts | 194° |
| 2026-04-20 01:09 | 48.61228 | -8.99575 | 36189 ft | 441 kts | 192° |
| 2026-04-20 01:09 | 48.55066 | -9.00013 | 36183 ft | 444 kts | 183° |
| 2026-04-20 01:10 | 48.48888 | -9.00011 | 36178 ft | 444 kts | 183° |
| 2026-04-20 01:10 | 48.39658 | -9.00009 | 36165 ft | 444 kts | 183° |
| 2026-04-20 01:11 | 48.33473 | -9.00009 | 36164 ft | 444 kts | 183° |
| 2026-04-20 01:11 | 48.27292 | -9.00018 | 36149 ft | 444 kts | 183° |
| 2026-04-20 01:12 | 48.21116 | -9.00020 | 36155 ft | 444 kts | 183° |
| 2026-04-20 01:12 | 48.14947 | -9.00017 | 36160 ft | 443 kts | 183° |
| 2026-04-20 01:13 | 48.08777 | -9.00016 | 36160 ft | 443 kts | 183° |
| 2026-04-20 01:13 | 48.02617 | -9.00013 | 36159 ft | 442 kts | 184° |
| 2026-04-20 01:14 | 47.96460 | -9.00019 | 36166 ft | 442 kts | 184° |
| 2026-04-20 01:14 | 47.90312 | -9.00015 | 36161 ft | 442 kts | 183° |
| 2026-04-20 01:15 | 47.84169 | -9.00006 | 36147 ft | 441 kts | 184° |
| 2026-04-20 01:15 | 47.78036 | -9.00003 | 36155 ft | 440 kts | 184° |
| 2026-04-20 01:16 | 47.71910 | -9.00004 | 36159 ft | 440 kts | 184° |
| 2026-04-20 01:16 | 47.65788 | -9.00013 | 36137 ft | 440 kts | 184° |
| 2026-04-20 01:17 | 47.59679 | -9.00013 | 36147 ft | 439 kts | 184° |
| 2026-04-20 01:17 | 47.53580 | -9.00000 | 36151 ft | 438 kts | 184° |
| 2026-04-20 01:18 | 47.47483 | -8.99998 | 36145 ft | 438 kts | 184° |
| 2026-04-20 01:18 | 47.41396 | -9.00001 | 36139 ft | 437 kts | 184° |
| 2026-04-20 01:19 | 47.35318 | -9.00009 | 36141 ft | 436 kts | 184° |
| 2026-04-20 01:19 | 47.29286 | -9.00011 | 36141 ft | 436 kts | 184° |
| 2026-04-20 01:20 | 47.23184 | -9.00008 | 36124 ft | 435 kts | 184° |
| 2026-04-20 01:20 | 47.17133 | -9.00012 | 36130 ft | 435 kts | 184° |
| 2026-04-20 01:21 | 47.11089 | -9.00010 | 36126 ft | 434 kts | 184° |
| 2026-04-20 01:21 | 47.05050 | -9.00007 | 36127 ft | 434 kts | 184° |
| 2026-04-20 01:22 | 46.99019 | -9.00012 | 36120 ft | 433 kts | 184° |
| 2026-04-20 01:22 | 46.93036 | -9.00005 | 36121 ft | 433 kts | 184° |
| 2026-04-20 01:23 | 46.87019 | -9.00002 | 36120 ft | 432 kts | 184° |
| 2026-04-20 01:23 | 46.81009 | -9.00005 | 36108 ft | 432 kts | 184° |
| 2026-04-20 01:24 | 46.75005 | -9.00014 | 36106 ft | 431 kts | 184° |
| 2026-04-20 01:24 | 46.69004 | -9.00017 | 36104 ft | 431 kts | 184° |
| 2026-04-20 01:25 | 46.63007 | -9.00013 | 36100 ft | 431 kts | 184° |
| 2026-04-20 01:25 | 46.57020 | -9.00010 | 36095 ft | 431 kts | 184° |
| 2026-04-20 01:26 | 46.51018 | -9.00015 | 36088 ft | 431 kts | 184° |
| 2026-04-20 01:26 | 46.45022 | -9.00013 | 36096 ft | 431 kts | 184° |
| 2026-04-20 01:27 | 46.39037 | -9.00009 | 36093 ft | 431 kts | 184° |
| 2026-04-20 01:27 | 46.33042 | -9.00012 | 36097 ft | 431 kts | 184° |
| 2026-04-20 01:28 | 46.27054 | -9.00012 | 36082 ft | 431 kts | 184° |
| 2026-04-20 01:28 | 46.21055 | -9.00011 | 36069 ft | 431 kts | 184° |
| 2026-04-20 01:29 | 46.15060 | -9.00006 | 36076 ft | 431 kts | 184° |
| 2026-04-20 01:29 | 46.09061 | -9.00014 | 36076 ft | 431 kts | 184° |
| 2026-04-20 01:30 | 46.03063 | -9.00008 | 36076 ft | 431 kts | 184° |
| 2026-04-20 01:30 | 45.97061 | -9.00013 | 36068 ft | 431 kts | 184° |
| 2026-04-20 01:31 | 45.91056 | -9.00009 | 36072 ft | 431 kts | 184° |
| 2026-04-20 01:31 | 45.85060 | -9.00007 | 36076 ft | 431 kts | 184° |
| 2026-04-20 01:32 | 45.79055 | -9.00014 | 36053 ft | 431 kts | 184° |
| 2026-04-20 01:32 | 45.73053 | -9.00019 | 36058 ft | 431 kts | 184° |
| 2026-04-20 01:33 | 45.67047 | -9.00014 | 36067 ft | 431 kts | 184° |
| 2026-04-20 01:33 | 45.61046 | -9.00010 | 36052 ft | 431 kts | 184° |
| 2026-04-20 01:34 | 45.55051 | -9.00020 | 36063 ft | 431 kts | 183° |
| 2026-04-20 01:34 | 45.49057 | -9.00017 | 36061 ft | 431 kts | 183° |
| 2026-04-20 01:35 | 45.43064 | -9.00012 | 36061 ft | 430 kts | 184° |
| 2026-04-20 01:35 | 45.37084 | -9.00020 | 36047 ft | 430 kts | 183° |
| 2026-04-20 01:36 | 45.31093 | -9.00020 | 36049 ft | 430 kts | 183° |
| 2026-04-20 01:36 | 45.25107 | -9.00013 | 36047 ft | 430 kts | 183° |
| 2026-04-20 01:37 | 45.19123 | -9.00013 | 36036 ft | 430 kts | 183° |
| 2026-04-20 01:37 | 45.13137 | -9.00020 | 36039 ft | 430 kts | 183° |
| 2026-04-20 01:38 | 45.07156 | -9.00022 | 36037 ft | 430 kts | 183° |
| 2026-04-20 01:38 | 45.01172 | -8.99986 | 36114 ft | 429 kts | 182° |
| 2026-04-20 01:39 | 44.98192 | -8.99827 | 36371 ft | 429 kts | 180° |
| 2026-04-20 01:39 | 44.95246 | -8.99533 | 36626 ft | 429 kts | 178° |
| 2026-04-20 01:39 | 44.92280 | -8.99137 | 36886 ft | 428 kts | 178° |
| 2026-04-20 01:39 | 44.89273 | -8.98681 | 37018 ft | 430 kts | 177° |
| 2026-04-20 01:40 | 44.83359 | -8.97772 | 37024 ft | 430 kts | 178° |
| 2026-04-20 01:40 | 44.77404 | -8.96949 | 37034 ft | 430 kts | 178° |
| 2026-04-20 01:41 | 44.71442 | -8.96180 | 37032 ft | 430 kts | 178° |
| 2026-04-20 01:41 | 44.65445 | -8.95398 | 37032 ft | 430 kts | 178° |
| 2026-04-20 01:42 | 44.59489 | -8.94594 | 37025 ft | 430 kts | 178° |
| 2026-04-20 01:42 | 44.53567 | -8.93793 | 37026 ft | 430 kts | 178° |
| 2026-04-20 01:43 | 44.50585 | -8.93394 | 36924 ft | 431 kts | 178° |
| 2026-04-20 01:43 | 44.47617 | -8.92998 | 37027 ft | 430 kts | 178° |
| 2026-04-20 01:43 | 44.41626 | -8.92217 | 37043 ft | 432 kts | 178° |
| 2026-04-20 01:44 | 44.35645 | -8.91432 | 37045 ft | 431 kts | 178° |
| 2026-04-20 01:44 | 44.29666 | -8.90649 | 37053 ft | 431 kts | 178° |
| 2026-04-20 01:45 | 44.23701 | -8.89860 | 37029 ft | 431 kts | 178° |
| 2026-04-20 01:45 | 44.17732 | -8.89072 | 37030 ft | 430 kts | 178° |
| 2026-04-20 01:46 | 44.11771 | -8.88293 | 37033 ft | 430 kts | 178° |
| 2026-04-20 01:46 | 44.06819 | -8.87651 | 37027 ft | 430 kts | 178° |
| 2026-04-20 01:47 | 44.00853 | -8.86882 | 37030 ft | 430 kts | 178° |
| 2026-04-20 01:47 | 43.94892 | -8.86106 | 37034 ft | 430 kts | 178° |
| 2026-04-20 01:48 | 43.88933 | -8.85324 | 37031 ft | 430 kts | 178° |
| 2026-04-20 01:48 | 43.82972 | -8.84549 | 37018 ft | 430 kts | 178° |
| 2026-04-20 01:49 | 43.77013 | -8.83780 | 37019 ft | 430 kts | 178° |
| 2026-04-20 01:49 | 43.71044 | -8.83017 | 37021 ft | 431 kts | 178° |
| 2026-04-20 01:50 | 43.65078 | -8.82240 | 37008 ft | 431 kts | 178° |
| 2026-04-20 01:50 | 43.59112 | -8.81470 | 37016 ft | 431 kts | 178° |
| 2026-04-20 01:51 | 43.53136 | -8.80707 | 37016 ft | 431 kts | 178° |
| 2026-04-20 01:51 | 43.47162 | -8.79946 | 37011 ft | 431 kts | 178° |
| 2026-04-20 01:52 | 43.41191 | -8.79182 | 37015 ft | 431 kts | 178° |
| 2026-04-20 01:52 | 43.35210 | -8.78418 | 37018 ft | 431 kts | 178° |
| 2026-04-20 01:53 | 43.29230 | -8.77657 | 37011 ft | 432 kts | 178° |
| 2026-04-20 01:53 | 43.23250 | -8.76900 | 37015 ft | 432 kts | 178° |
| 2026-04-20 01:54 | 43.17274 | -8.76153 | 37022 ft | 432 kts | 178° |
| 2026-04-20 01:54 | 43.11288 | -8.75397 | 37025 ft | 432 kts | 178° |
| 2026-04-20 01:55 | 43.05346 | -8.74650 | 37013 ft | 432 kts | 178° |
| 2026-04-20 01:55 | 42.99327 | -8.73894 | 37022 ft | 432 kts | 178° |
| 2026-04-20 01:56 | 42.93387 | -8.73149 | 37028 ft | 432 kts | 178° |
| 2026-04-20 01:56 | 42.87406 | -8.72398 | 37016 ft | 432 kts | 178° |
| 2026-04-20 01:57 | 42.81426 | -8.71642 | 37022 ft | 432 kts | 178° |
| 2026-04-20 01:57 | 42.75441 | -8.70891 | 37024 ft | 432 kts | 178° |
| 2026-04-20 01:58 | 42.69461 | -8.70144 | 37025 ft | 432 kts | 178° |
| 2026-04-20 01:58 | 42.63478 | -8.69393 | 37022 ft | 432 kts | 178° |
| 2026-04-20 01:59 | 42.57496 | -8.68654 | 37027 ft | 431 kts | 178° |
| 2026-04-20 01:59 | 42.51516 | -8.67914 | 37033 ft | 431 kts | 178° |
| 2026-04-20 02:00 | 42.45542 | -8.67180 | 37036 ft | 431 kts | 178° |
| 2026-04-20 02:00 | 42.39564 | -8.66445 | 37042 ft | 431 kts | 178° |
| 2026-04-20 02:01 | 42.33589 | -8.65695 | 37049 ft | 431 kts | 178° |
| 2026-04-20 02:01 | 42.27609 | -8.64955 | 37042 ft | 431 kts | 178° |
| 2026-04-20 02:02 | 42.21631 | -8.64224 | 37045 ft | 431 kts | 178° |
| 2026-04-20 02:02 | 42.15660 | -8.63497 | 37032 ft | 431 kts | 178° |
| 2026-04-20 02:03 | 42.09684 | -8.62768 | 37034 ft | 431 kts | 178° |
| 2026-04-20 02:03 | 42.03715 | -8.62038 | 37034 ft | 431 kts | 178° |
| 2026-04-20 02:04 | 41.97743 | -8.61311 | 37038 ft | 431 kts | 178° |
| 2026-04-20 02:04 | 41.91769 | -8.60582 | 37042 ft | 431 kts | 178° |
| 2026-04-20 02:05 | 41.85805 | -8.59858 | 37034 ft | 430 kts | 178° |
| 2026-04-20 02:05 | 41.79834 | -8.59402 | 37038 ft | 429 kts | 181° |
| 2026-04-20 02:06 | 41.73874 | -8.59283 | 37040 ft | 428 kts | 182° |
| 2026-04-20 02:06 | 41.67908 | -8.59189 | 37042 ft | 429 kts | 182° |
| 2026-04-20 02:07 | 41.61944 | -8.59007 | 37032 ft | 429 kts | 181° |
| 2026-04-20 02:07 | 41.55981 | -8.58782 | 37035 ft | 429 kts | 181° |
| 2026-04-20 02:08 | 41.50002 | -8.58550 | 37041 ft | 429 kts | 181° |
| 2026-04-20 02:08 | 41.44045 | -8.58344 | 37033 ft | 429 kts | 181° |
| 2026-04-20 02:09 | 41.38064 | -8.58147 | 37037 ft | 429 kts | 181° |
| 2026-04-20 02:09 | 41.32090 | -8.57950 | 37041 ft | 429 kts | 181° |
| 2026-04-20 02:10 | 41.26110 | -8.57741 | 37042 ft | 429 kts | 181° |
| 2026-04-20 02:10 | 41.20135 | -8.57536 | 37039 ft | 429 kts | 181° |
| 2026-04-20 02:11 | 41.14157 | -8.57333 | 37041 ft | 429 kts | 181° |
| 2026-04-20 02:11 | 41.08188 | -8.57128 | 37042 ft | 429 kts | 181° |
| 2026-04-20 02:12 | 41.02211 | -8.56925 | 37031 ft | 429 kts | 181° |
| 2026-04-20 02:12 | 40.96240 | -8.56724 | 37036 ft | 429 kts | 181° |
| 2026-04-20 02:13 | 40.90275 | -8.56524 | 37042 ft | 429 kts | 181° |
| 2026-04-20 02:13 | 40.84305 | -8.56317 | 37043 ft | 429 kts | 181° |
| 2026-04-20 02:14 | 40.78344 | -8.56113 | 37041 ft | 428 kts | 181° |
| 2026-04-20 02:14 | 40.72387 | -8.55919 | 37051 ft | 428 kts | 181° |
| 2026-04-20 02:15 | 40.66434 | -8.55720 | 37051 ft | 428 kts | 181° |
| 2026-04-20 02:15 | 40.60482 | -8.55520 | 37048 ft | 427 kts | 181° |
| 2026-04-20 02:16 | 40.54540 | -8.55322 | 37039 ft | 427 kts | 181° |
| 2026-04-20 02:16 | 40.48603 | -8.55125 | 37041 ft | 427 kts | 181° |
| 2026-04-20 02:17 | 40.42666 | -8.54932 | 37045 ft | 427 kts | 181° |
| 2026-04-20 02:17 | 40.36724 | -8.54728 | 36693 ft | 427 kts | 181° |
| 2026-04-20 02:18 | 40.33786 | -8.54627 | 36423 ft | 427 kts | 181° |
| 2026-04-20 02:18 | 40.30822 | -8.54527 | 35724 ft | 428 kts | 182° |
| 2026-04-20 02:18 | 40.27834 | -8.54431 | 34948 ft | 430 kts | 182° |
| 2026-04-20 02:18 | 40.24828 | -8.54335 | 34128 ft | 433 kts | 182° |
| 2026-04-20 02:19 | 40.21803 | -8.54240 | 33197 ft | 436 kts | 182° |
| 2026-04-20 02:19 | 40.18761 | -8.54144 | 32302 ft | 438 kts | 182° |
| 2026-04-20 02:19 | 40.15663 | -8.54043 | 31307 ft | 442 kts | 181° |
| 2026-04-20 02:19 | 40.12609 | -8.53937 | 30384 ft | 446 kts | 181° |
| 2026-04-20 02:20 | 40.09489 | -8.53826 | 29247 ft | 451 kts | 181° |
| 2026-04-20 02:20 | 40.06374 | -8.53716 | 28766 ft | 441 kts | 181° |
| 2026-04-20 02:20 | 40.03365 | -8.53609 | 28552 ft | 427 kts | 181° |
| 2026-04-20 02:20 | 40.00432 | -8.53464 | 28272 ft | 417 kts | 180° |
| 2026-04-20 02:21 | 39.94691 | -8.52995 | 27756 ft | 411 kts | 178° |
| 2026-04-20 02:21 | 39.91840 | -8.52721 | 27408 ft | 409 kts | 178° |
| 2026-04-20 02:21 | 39.89017 | -8.52452 | 27001 ft | 405 kts | 178° |
| 2026-04-20 02:22 | 39.86220 | -8.52199 | 26600 ft | 402 kts | 179° |
| 2026-04-20 02:22 | 39.83431 | -8.51957 | 26200 ft | 399 kts | 179° |
| 2026-04-20 02:22 | 39.80689 | -8.51726 | 25964 ft | 388 kts | 179° |
| 2026-04-20 02:22 | 39.78052 | -8.51636 | 25838 ft | 371 kts | 186° |
| 2026-04-20 02:23 | 39.75566 | -8.52187 | 25651 ft | 357 kts | 198° |
| 2026-04-20 02:23 | 39.73290 | -8.53370 | 25400 ft | 348 kts | 210° |
| 2026-04-20 02:23 | 39.71221 | -8.54984 | 25138 ft | 346 kts | 213° |
| 2026-04-20 02:23 | 39.69174 | -8.56613 | 24845 ft | 344 kts | 212° |
| 2026-04-20 02:24 | 39.67133 | -8.58221 | 24561 ft | 343 kts | 212° |
| 2026-04-20 02:24 | 39.65097 | -8.59820 | 24273 ft | 341 kts | 212° |
| 2026-04-20 02:24 | 39.63067 | -8.61410 | 23991 ft | 340 kts | 212° |
| 2026-04-20 02:24 | 39.61042 | -8.62995 | 23696 ft | 339 kts | 212° |
| 2026-04-20 02:25 | 39.59028 | -8.64571 | 23383 ft | 338 kts | 212° |
| 2026-04-20 02:25 | 39.57020 | -8.66144 | 23091 ft | 336 kts | 212° |
| 2026-04-20 02:25 | 39.55020 | -8.67713 | 22800 ft | 335 kts | 212° |
| 2026-04-20 02:25 | 39.53031 | -8.69273 | 22528 ft | 334 kts | 212° |
| 2026-04-20 02:26 | 39.51050 | -8.70830 | 22242 ft | 332 kts | 212° |
| 2026-04-20 02:26 | 39.49075 | -8.72379 | 21948 ft | 331 kts | 212° |
| 2026-04-20 02:26 | 39.47116 | -8.73912 | 21660 ft | 329 kts | 212° |
| 2026-04-20 02:26 | 39.45161 | -8.75438 | 21396 ft | 327 kts | 211° |
| 2026-04-20 02:27 | 39.43217 | -8.76956 | 21119 ft | 326 kts | 211° |
| 2026-04-20 02:27 | 39.41278 | -8.78472 | 20845 ft | 325 kts | 212° |
| 2026-04-20 02:27 | 39.39475 | -8.80207 | 20567 ft | 323 kts | 223° |
| 2026-04-20 02:27 | 39.37956 | -8.82344 | 20304 ft | 322 kts | 228° |
| 2026-04-20 02:28 | 39.36485 | -8.84522 | 20028 ft | 321 kts | 228° |
| 2026-04-20 02:28 | 39.35015 | -8.86684 | 19757 ft | 320 kts | 228° |
| 2026-04-20 02:28 | 39.33546 | -8.88836 | 19485 ft | 319 kts | 228° |
| 2026-04-20 02:28 | 39.32085 | -8.90977 | 19212 ft | 318 kts | 228° |
| 2026-04-20 02:29 | 39.31117 | -8.92397 | 19045 ft | 317 kts | 228° |
| 2026-04-20 02:29 | 39.29191 | -8.95221 | 18687 ft | 315 kts | 228° |
| 2026-04-20 02:29 | 39.28219 | -8.96645 | 18509 ft | 315 kts | 228° |
| 2026-04-20 02:29 | 39.26773 | -8.98760 | 18227 ft | 313 kts | 228° |
| 2026-04-20 02:30 | 39.24862 | -9.01550 | 17863 ft | 312 kts | 228° |
| 2026-04-20 02:30 | 39.23891 | -9.02969 | 17688 ft | 312 kts | 228° |
| 2026-04-20 02:30 | 39.21999 | -9.05736 | 17328 ft | 311 kts | 228° |
| 2026-04-20 02:30 | 39.20571 | -9.07823 | 17059 ft | 310 kts | 228° |
| 2026-04-20 02:31 | 39.19600 | -9.09239 | 16904 ft | 310 kts | 228° |
| 2026-04-20 02:31 | 39.18174 | -9.11320 | 16634 ft | 309 kts | 228° |
| 2026-04-20 02:31 | 39.16751 | -9.13396 | 16371 ft | 308 kts | 228° |
| 2026-04-20 02:31 | 39.15334 | -9.15460 | 16110 ft | 308 kts | 228° |
| 2026-04-20 02:32 | 39.13920 | -9.17518 | 15852 ft | 307 kts | 228° |
| 2026-04-20 02:32 | 39.12504 | -9.19583 | 15599 ft | 306 kts | 228° |
| 2026-04-20 02:32 | 39.11094 | -9.21636 | 15335 ft | 306 kts | 228° |
| 2026-04-20 02:32 | 39.09687 | -9.23682 | 15079 ft | 305 kts | 228° |
| 2026-04-20 02:33 | 39.08282 | -9.25719 | 14819 ft | 304 kts | 228° |
| 2026-04-20 02:33 | 39.06893 | -9.27730 | 14567 ft | 304 kts | 228° |
| 2026-04-20 02:33 | 39.05492 | -9.29761 | 14310 ft | 303 kts | 229° |
| 2026-04-20 02:33 | 39.04075 | -9.31816 | 14050 ft | 303 kts | 229° |
| 2026-04-20 02:34 | 39.02698 | -9.33810 | 13797 ft | 302 kts | 229° |
| 2026-04-20 02:34 | 39.01303 | -9.35826 | 13524 ft | 301 kts | 229° |
| 2026-04-20 02:34 | 38.99911 | -9.37836 | 13267 ft | 300 kts | 229° |
| 2026-04-20 02:34 | 38.98526 | -9.39834 | 13013 ft | 299 kts | 229° |
| 2026-04-20 02:35 | 38.97143 | -9.41832 | 12763 ft | 298 kts | 229° |
| 2026-04-20 02:35 | 38.95772 | -9.43815 | 12507 ft | 297 kts | 229° |
| 2026-04-20 02:35 | 38.94396 | -9.45803 | 12249 ft | 296 kts | 229° |
| 2026-04-20 02:35 | 38.93032 | -9.47769 | 12023 ft | 293 kts | 228° |
| 2026-04-20 02:36 | 38.91696 | -9.49691 | 11859 ft | 284 kts | 229° |
| 2026-04-20 02:36 | 38.90401 | -9.51551 | 11741 ft | 275 kts | 229° |
| 2026-04-20 02:36 | 38.89073 | -9.53257 | 11588 ft | 268 kts | 217° |
| 2026-04-20 02:36 | 38.87442 | -9.54395 | 11422 ft | 268 kts | 200° |
| 2026-04-20 02:37 | 38.85623 | -9.54841 | 11175 ft | 268 kts | 183° |
| 2026-04-20 02:37 | 38.83748 | -9.54873 | 10948 ft | 268 kts | 182° |
| 2026-04-20 02:37 | 38.81884 | -9.54904 | 10731 ft | 267 kts | 183° |
| 2026-04-20 02:37 | 38.80028 | -9.54942 | 10503 ft | 267 kts | 183° |
| 2026-04-20 02:38 | 38.78172 | -9.54985 | 10273 ft | 267 kts | 183° |
| 2026-04-20 02:38 | 38.76318 | -9.55028 | 10035 ft | 266 kts | 183° |
| 2026-04-20 02:38 | 38.74466 | -9.55069 | 9881 ft | 266 kts | 183° |
| 2026-04-20 02:38 | 38.72617 | -9.55110 | 9743 ft | 266 kts | 183° |
| 2026-04-20 02:39 | 38.70773 | -9.55148 | 9617 ft | 265 kts | 183° |
| 2026-04-20 02:39 | 38.68928 | -9.55188 | 9481 ft | 264 kts | 183° |
| 2026-04-20 02:39 | 38.67090 | -9.55227 | 9359 ft | 264 kts | 183° |
| 2026-04-20 02:39 | 38.65267 | -9.55266 | 9228 ft | 258 kts | 183° |
| 2026-04-20 02:40 | 38.63482 | -9.55303 | 8901 ft | 257 kts | 183° |
| 2026-04-20 02:40 | 38.61713 | -9.55214 | 8627 ft | 254 kts | 169° |
| 2026-04-20 02:40 | 38.60110 | -9.54210 | 8131 ft | 263 kts | 137° |
| 2026-04-20 02:40 | 38.59114 | -9.52310 | 7925 ft | 258 kts | 109° |
| 2026-04-20 02:41 | 38.58779 | -9.50072 | 7607 ft | 257 kts | 98° |
| 2026-04-20 02:41 | 38.58537 | -9.47807 | 7265 ft | 257 kts | 98° |
| 2026-04-20 02:41 | 38.58299 | -9.45557 | 6947 ft | 255 kts | 98° |
| 2026-04-20 02:41 | 38.58062 | -9.43317 | 6641 ft | 253 kts | 98° |
| 2026-04-20 02:42 | 38.57823 | -9.41106 | 6214 ft | 250 kts | 98° |
| 2026-04-20 02:42 | 38.57585 | -9.38912 | 5810 ft | 248 kts | 98° |
| 2026-04-20 02:42 | 38.57349 | -9.36729 | 5404 ft | 246 kts | 98° |
| 2026-04-20 02:42 | 38.57119 | -9.34618 | 5205 ft | 233 kts | 98° |
| 2026-04-20 02:43 | 38.56907 | -9.32638 | 5097 ft | 217 kts | 97° |
| 2026-04-20 02:43 | 38.56991 | -9.30793 | 5015 ft | 204 kts | 76° |
| 2026-04-20 02:43 | 38.57488 | -9.29094 | 4740 ft | 203 kts | 68° |
| 2026-04-20 02:43 | 38.58018 | -9.27450 | 4491 ft | 199 kts | 68° |
| 2026-04-20 02:44 | 38.58547 | -9.25811 | 4270 ft | 198 kts | 68° |
| 2026-04-20 02:44 | 38.59183 | -9.24281 | 4042 ft | 198 kts | 52° |
| 2026-04-20 02:44 | 38.60238 | -9.23156 | 3763 ft | 197 kts | 27° |
| 2026-04-20 02:44 | 38.61492 | -9.22467 | 3511 ft | 195 kts | 23° |
| 2026-04-20 02:45 | 38.62747 | -9.21801 | 3258 ft | 195 kts | 23° |
| 2026-04-20 02:45 | 38.63996 | -9.21137 | 3008 ft | 194 kts | 23° |
| 2026-04-20 02:45 | 38.65234 | -9.20478 | 2755 ft | 192 kts | 23° |
| 2026-04-20 02:45 | 38.66460 | -9.19825 | 2499 ft | 190 kts | 24° |
| 2026-04-20 02:46 | 38.67672 | -9.19179 | 2262 ft | 186 kts | 24° |
| 2026-04-20 02:46 | 38.68832 | -9.18561 | 2032 ft | 174 kts | 24° |
| 2026-04-20 02:46 | 38.69911 | -9.17986 | 1801 ft | 162 kts | 24° |
| 2026-04-20 02:46 | 38.70916 | -9.17450 | 1606 ft | 149 kts | 24° |
| 2026-04-20 02:47 | 38.71849 | -9.16952 | 1395 ft | 143 kts | 24° |
| 2026-04-20 02:47 | 38.72752 | -9.16470 | 1208 ft | 140 kts | 24° |
| 2026-04-20 02:47 | 38.73644 | -9.15993 | 1022 ft | 138 kts | 24° |
| 2026-04-20 02:47 | 38.74527 | -9.15521 | 835 ft | 137 kts | 22° |
| 2026-04-20 02:48 | 38.75400 | -9.15054 | 653 ft | 136 kts | 21° |
| 2026-04-20 02:48 | 38.76273 | -9.14588 | 464 ft | 135 kts | 21° |
| 2026-04-20 02:48 | 38.77127 | -9.14137 | 358 ft | 122 kts | 22° |
| 2026-04-20 02:48 | 38.77751 | -9.13797 | 363 ft | 73 kts | 22° |
| 2026-04-20 02:49 | 38.78131 | -9.13593 | 371 ft | 45 kts | 23° |
| 2026-04-20 02:49 | 38.78274 | -9.13483 | 365 ft | 15 kts | 39° |
| 2026-04-20 02:49 | 38.78353 | -9.13375 | 363 ft | 18 kts | 51° |
| 2026-04-20 02:49 | 38.78373 | -9.13302 | 367 ft | 6 kts | 95° |
| 2026-04-20 02:50 | 38.78341 | -9.13263 | 360 ft | 8 kts | 168° |
| 2026-04-20 02:50 | 38.78289 | -9.13280 | 361 ft | 8 kts | 203° |
| 2026-04-20 02:50 | 38.78239 | -9.13307 | 362 ft | 9 kts | 202° |
| 2026-04-20 02:50 | 38.78182 | -9.13337 | 362 ft | 9 kts | 202° |
| 2026-04-20 02:51 | 38.78130 | -9.13364 | 364 ft | 8 kts | 202° |
| 2026-04-20 02:51 | 38.78084 | -9.13388 | 359 ft | 7 kts | 202° |
| 2026-04-20 02:51 | 38.78042 | -9.13409 | 362 ft | 6 kts | 195° |
| 2026-04-20 02:51 | 38.77989 | -9.13407 | 355 ft | 10 kts | 169° |
| 2026-04-20 02:52 | 38.77908 | -9.13386 | 350 ft | 13 kts | 168° |
| 2026-04-20 02:52 | 38.77811 | -9.13359 | 346 ft | 15 kts | 168° |
| 2026-04-20 02:52 | 38.77699 | -9.13329 | 335 ft | 17 kts | 168° |
| 2026-04-20 02:52 | 38.77598 | -9.13318 | 337 ft | 13 kts | 179° |
| 2026-04-20 02:53 | 38.77514 | -9.13304 | 338 ft | 12 kts | 169° |
| 2026-04-20 02:53 | 38.77448 | -9.13284 | 338 ft | 8 kts | 167° |
| 2026-04-20 02:53 | 38.77401 | -9.13271 | 336 ft | 5 kts | 169° |
| 2026-04-20 02:53 | 38.77377 | -9.13266 | 335 ft | 5 kts | 172° |
| 2026-04-20 02:54 | 38.77321 | -9.13256 | 338 ft | 6 kts | 171° |
| 2026-04-20 02:54 | 38.77293 | -9.13250 | 338 ft | 5 kts | 165° |
| 2026-04-20 02:54 | 38.77289 | -9.13209 | 337 ft | 7 kts | 78° |
| 2026-04-20 02:54 | 38.77295 | -9.13174 | 334 ft | 2 kts | 78° |
| 2026-04-20 02:55 | 38.77297 | -9.13162 | 337 ft | 0 kts | 78° |